Aviation Digital Data Service (ADDS)

Output produced by METARs form (1812 UTC 14 August 2018)
found at http://www.aviationweather.gov/adds/metars/
 
RKSG 141756Z 12003KT 10SM CLR 27/27 A2976 RMK AO2A SLP080 T02720266 10311 20271 57007 $
TAF RKSG 141200Z 1412/1518 30006KT 9999 FEW030 BKN200 QNH2960INS 
     TEMPO 1414/1417 BKN030 
     BECMG 1416/1417 VRB06KT 6000 BR SCT040 QNH2962INS 
     BECMG 1423/1500 VRB06KT 9000 HZ SCT040 QNH2960INS 
     TEMPO 1509/1514 9000 -SHRA BKN040 TX37/1505Z TN25/1421Z
       
RKTU 141800Z 10001KT CAVOK 28/23 Q1008 NOSIG
TAF RKTU 141700Z 1418/1524 12006KT 9999 SCT030 SCT200 TN25/1421Z TX36/1506Z 
     BECMG 1503/1504 BKN030
       
RKTN 141800Z 08002KT CAVOK 25/21 Q1009 NOSIG
TAF RKTN 141700Z 1418/1524 13006KT 9999 SCT040 TN24/1421Z TX35/1506Z 
     BECMG 1505/1506 BKN040
       
RKPK 141800Z 33004KT CAVOK 27/24 Q1009 NOSIG
TAF RKPK 141700Z 1418/1524 03008KT 9999 SCT040 TN26/1420Z TX33/1505Z 
     TEMPO 1421/1512 09008KT 8000 -SHRA SCT015 BKN030
       
RKSS 141800Z 33003KT CAVOK 27/25 Q1008 NOSIG
TAF RKSS 141700Z 1418/1524 06005KT 7000 SCT030 BKN180 TN26/1420Z TX36/1505Z TN26/1520Z 
     BECMG 1501/1502 29006KT 
     TEMPO 1503/1507 BKN030 
     BECMG 1516/1517 07006KT BKN030
       
RKSI 141800Z 04006KT 9999 FEW030 SCT180 29/22 Q1008 NOSIG
TAF RKSI 141700Z 1418/1524 07007KT 7000 SCT030 TN27/1421Z TX34/1505Z TN26/1521Z 
     BECMG 1503/1504 33008KT 
     BECMG 1510/1511 08007KT
       
RKPC 141800Z 09007KT CAVOK 28/23 Q1007 NOSIG
TAF RKPC 141700Z 1418/1524 11008KT 9999 FEW030 SCT180 TN27/1420Z TX32/1505Z TN27/1520Z 
     BECMG 1502/1503 10015G25KT BKN025 OVC100 
     BECMG 1507/1508 4200 -RA 
     BECMG 1515/1516 16012KT 
     BECMG 1523/1524 09012KT 7000 NSW
       
RKJK 141756Z AUTO 00000KT 10SM CLR 28/26 A2977 RMK AO2 SLP085 T02760260 10297 20276 57007 FZRANO $
TAF RKJK 141505Z 1415/1521 VRB06KT 9999 FEW030 QNH2962INS 
     TEMPO 1507/1512 9000 -SHRA BKN035 
     BECMG 1501/1502 04009KT 9999 SCT030 QNH2964INS TX37/1504Z TN26/1421Z
       
RKSO 141758Z 09003KT 7SM CLR 27/24 A2976 RMK AO2A SLP080 T02730244 10310 20273 57008 $
TAF RKSO 141100Z 1411/1517 30006KT 9999 FEW030 BKN200 QNH2960INS 
     BECMG 1505/1506 04009KT 9999 SCT045 QNH2962INS TX38/1505Z TN25/1421Z
       
RKSM 141700Z 33001KT 9999 FEW200 28/25 A2980
TAF RKSM 141700Z 1418/1524 33006KT 9999 FEW040 TN26/1421Z TX35/1506Z
       
RKNY 141800Z AUTO 23004KT 9999 NCD 24/23 Q1009
TAF RKNY 141700Z 1418/1524 25005KT 4200 BR SCT030 BKN120 TN27/1420Z TX31/1505Z TN24/1520Z 
     BECMG 1422/1423 35006KT 7000 NSW 
     BECMG 1503/1504 07006KT 
     BECMG 1515/1516 35007KT 4200 -RA FEW010 BKN025 OVC080 
     BECMG 1520/1521 02008KT 2500 RA